createdAt,value
2022-09-06T00:01:17.689Z,101692.13
2022-09-06T00:03:45.505Z,101699.09
2022-09-06T00:06:17.721Z,101699.50
2022-09-06T00:08:45.412Z,101691.84
2022-09-06T00:11:17.473Z,101678.09
2022-09-06T00:13:46.853Z,101670.16
2022-09-06T00:16:16.490Z,101667.09
2022-09-06T00:18:45.797Z,101667.91
2022-09-06T00:21:25.787Z,101669.53
2022-09-06T00:23:53.030Z,101674.22
2022-09-06T00:26:21.843Z,101674.03
2022-09-06T00:28:49.511Z,101674.84
2022-09-06T00:31:23.436Z,101686.50
2022-09-06T00:33:50.633Z,101692.31
2022-09-06T00:36:18.196Z,101696.50
2022-09-06T00:38:46.151Z,101697.91
2022-09-06T00:41:16.158Z,101675.09
2022-09-06T00:43:43.975Z,101669.00
2022-09-06T00:46:15.537Z,101674.16
2022-09-06T00:48:49.774Z,101666.75
2022-09-06T00:51:20.616Z,101661.22
2022-09-06T00:53:47.255Z,101671.75
2022-09-06T00:56:15.023Z,101672.84
2022-09-06T00:58:41.752Z,101677.84
2022-09-06T01:01:08.329Z,101667.97
2022-09-06T01:03:36.208Z,101675.22
2022-09-06T01:06:24.693Z,101682.47
2022-09-06T01:08:54.031Z,101686.63
2022-09-06T01:11:33.555Z,101686.97
2022-09-06T01:14:25.944Z,101690.00
2022-09-06T01:17:15.136Z,101700.22
2022-09-06T01:20:12.720Z,101700.22
2022-09-06T01:22:59.494Z,101701.00
2022-09-06T01:25:59.921Z,101713.13
2022-09-06T01:28:43.947Z,101707.97
2022-09-06T01:31:25.846Z,101711.81
2022-09-06T01:33:58.384Z,101703.06
2022-09-06T01:36:31.635Z,101697.56
2022-09-06T01:38:59.137Z,101697.34
2022-09-06T01:41:27.168Z,101692.78
2022-09-06T01:43:55.995Z,101694.53
2022-09-06T01:46:45.480Z,101672.22
2022-09-06T01:49:39.527Z,101664.28
2022-09-06T01:52:21.976Z,101661.53
2022-09-06T01:55:16.828Z,101666.19
2022-09-06T01:58:06.992Z,101662.75
2022-09-06T02:00:45.188Z,101648.00
2022-09-06T02:03:18.587Z,101643.63
2022-09-06T02:05:52.895Z,101634.88
2022-09-06T02:08:29.307Z,101642.00
2022-09-06T02:11:00.806Z,101627.75
2022-09-06T02:13:33.573Z,101627.75
2022-09-06T02:16:06.672Z,101613.50
2022-09-06T02:18:50.203Z,101606.69
2022-09-06T02:21:21.730Z,101603.13
2022-09-06T02:23:51.225Z,101573.78
2022-09-06T02:26:34.445Z,101560.94
2022-09-06T02:29:07.972Z,101549.44
2022-09-06T02:31:43.513Z,101535.53
2022-09-06T02:34:29.560Z,101513.03
2022-09-06T02:36:58.440Z,101510.59
2022-09-06T02:39:33.332Z,101512.03
2022-09-06T02:42:01.738Z,101506.31
2022-09-06T02:44:32.839Z,101495.94
2022-09-06T02:47:01.572Z,101508.88
2022-09-06T02:49:28.159Z,101510.81
2022-09-06T02:51:57.728Z,101516.91
2022-09-06T02:54:25.388Z,101507.06
2022-09-06T02:56:52.575Z,101505.44
2022-09-06T02:59:19.404Z,101507.66
2022-09-06T03:01:46.960Z,101519.78
2022-09-06T03:04:19.351Z,101517.03
2022-09-06T03:06:52.201Z,101512.16
2022-09-06T03:09:19.813Z,101519.78
2022-09-06T03:11:47.374Z,101517.03
2022-09-06T03:14:19.689Z,101510.75
2022-09-06T03:16:46.327Z,101509.91
2022-09-06T03:19:20.219Z,101516.03
2022-09-06T03:21:46.798Z,101509.53
2022-09-06T03:24:18.339Z,101512.41
2022-09-06T03:26:45.905Z,101508.81
2022-09-06T03:29:13.546Z,101520.13
2022-09-06T03:31:48.077Z,101529.50
2022-09-06T03:34:14.628Z,101526.25
2022-09-06T03:36:42.212Z,101526.25
2022-09-06T03:39:09.777Z,101535.28
2022-09-06T03:41:38.341Z,101538.34
2022-09-06T03:44:06.193Z,101528.47
2022-09-06T03:46:33.753Z,101531.50
2022-09-06T03:49:01.993Z,101532.34
2022-09-06T03:51:28.739Z,101532.63
2022-09-06T03:53:56.341Z,101535.19
2022-09-06T03:56:22.885Z,101534.19
2022-09-06T03:58:49.497Z,101547.41
2022-09-06T04:01:17.065Z,101555.13
2022-09-06T04:03:45.709Z,101553.00
2022-09-06T04:06:13.350Z,101544.75
2022-09-06T04:08:40.924Z,101551.03
2022-09-06T04:11:08.744Z,101556.34
2022-09-06T04:13:36.167Z,101557.75
2022-09-06T04:16:05.276Z,101564.69
2022-09-06T04:18:34.852Z,101557.75
2022-09-06T04:21:02.827Z,101562.44
2022-09-06T04:23:31.583Z,101563.56
2022-09-06T04:26:01.509Z,101571.97
2022-09-06T04:28:29.189Z,101563.75
2022-09-06T04:31:04.964Z,101570.59
2022-09-06T04:33:33.882Z,101569.47
2022-09-06T04:36:02.682Z,101566.22
2022-09-06T04:38:31.118Z,101574.44
2022-09-06T04:40:58.752Z,101575.06
2022-09-06T04:43:26.291Z,101587.94
2022-09-06T04:45:52.882Z,101597.00
2022-09-06T04:48:24.657Z,101599.44
2022-09-06T04:50:53.140Z,101597.00
2022-09-06T04:53:19.656Z,101602.50
2022-09-06T04:55:47.213Z,101591.53
2022-09-06T04:58:17.869Z,101601.69
2022-09-06T05:00:45.115Z,101606.66
2022-09-06T05:03:12.711Z,101620.38
2022-09-06T05:05:39.263Z,101613.06
2022-09-06T05:08:06.885Z,101601.84
2022-09-06T05:10:33.470Z,101608.19
2022-09-06T05:13:01.011Z,101608.78
2022-09-06T05:15:32.001Z,101609.91
2022-09-06T05:18:04.969Z,101623.03
2022-09-06T05:20:32.627Z,101615.31
2022-09-06T05:23:07.229Z,101616.94
2022-09-06T05:25:33.789Z,101619.16
2022-09-06T05:28:13.476Z,101623.03
2022-09-06T05:30:41.729Z,101628.78
2022-09-06T05:33:20.652Z,101629.91
2022-09-06T05:35:50.313Z,101632.97
2022-09-06T05:38:17.995Z,101632.47
2022-09-06T05:40:52.406Z,101636.38
2022-09-06T05:43:18.997Z,101645.72
2022-09-06T05:45:46.526Z,101652.03
2022-09-06T05:48:15.204Z,101643.81
2022-09-06T05:50:41.844Z,101645.13
2022-09-06T05:53:09.483Z,101638.31
2022-09-06T05:55:41.140Z,101638.31
2022-09-06T05:58:14.369Z,101633.34
2022-09-06T06:00:41.912Z,101623.16
2022-09-06T06:03:10.440Z,101628.38
2022-09-06T06:05:37.990Z,101627.03
2022-09-06T06:08:16.046Z,101638.00
2022-09-06T06:10:45.577Z,101635.78
2022-09-06T06:15:59.951Z,101634.75
2022-09-06T06:18:37.147Z,101643.50
2022-09-06T06:21:26.667Z,101644.00
2022-09-06T06:23:55.719Z,101640.69
2022-09-06T06:26:57.313Z,101637.94
2022-09-06T06:29:35.050Z,101629.72
2022-09-06T06:32:03.746Z,101622.00
2022-09-06T06:34:41.458Z,101619.75
2022-09-06T06:37:33.050Z,101624.66
2022-09-06T06:40:31.684Z,101621.81
2022-09-06T06:43:14.897Z,101627.81
2022-09-06T06:45:50.181Z,101624.97
2022-09-06T06:48:29.147Z,101620.81
2022-09-06T06:50:56.730Z,101612.28
2022-09-06T06:53:23.891Z,101613.59
2022-09-06T06:55:52.763Z,101613.31
2022-09-06T06:58:37.635Z,101616.75
2022-09-06T07:01:04.379Z,101605.16
2022-09-06T07:03:32.087Z,101614.13
2022-09-06T07:06:10.639Z,101607.19
2022-09-06T07:08:50.616Z,101597.56
2022-09-06T07:11:21.655Z,101595.19
2022-09-06T07:13:53.469Z,101595.06
2022-09-06T07:16:28.445Z,101586.44
2022-09-06T07:19:04.598Z,101582.75
2022-09-06T07:21:38.305Z,101582.16
2022-09-06T07:24:30.268Z,101583.66
2022-09-06T07:30:22.722Z,101578.78
2022-09-06T07:32:55.521Z,101573.19
2022-09-06T07:35:50.106Z,101575.84
2022-09-06T07:38:29.156Z,101576.84
2022-09-06T07:41:01.320Z,101583.03
2022-09-06T07:43:39.313Z,101584.03
2022-09-06T07:46:10.165Z,101584.72
2022-09-06T07:48:49.690Z,101592.03
2022-09-06T07:51:35.782Z,101586.44
2022-09-06T07:54:30.979Z,101595.06
2022-09-06T07:57:25.800Z,101591.06
2022-09-06T07:59:52.447Z,101594.69
2022-09-06T08:02:19.032Z,101595.88
2022-09-06T08:04:51.463Z,101588.78
2022-09-06T08:07:38.808Z,101580.09
2022-09-06T08:10:38.685Z,101579.63
2022-09-06T08:13:11.492Z,101577.91
2022-09-06T08:22:38.436Z,101584.03
2022-09-06T08:25:05.311Z,101578.41
2022-09-06T08:28:11.299Z,101582.81
2022-09-06T08:30:44.504Z,101572.31
2022-09-06T08:33:11.211Z,101557.44
2022-09-06T08:36:18.534Z,101563.78
2022-09-06T08:38:49.165Z,101567.84
2022-09-06T08:42:13.671Z,101557.19
2022-09-06T08:48:33.713Z,101553.34
2022-09-06T08:51:39.932Z,101552.66
2022-09-06T08:54:46.069Z,101549.09
2022-09-06T08:57:55.477Z,101539.66
2022-09-06T09:00:23.594Z,101537.88
2022-09-06T09:03:06.383Z,101537.84
2022-09-06T09:05:53.602Z,101538.00
2022-09-06T09:08:40.360Z,101546.06
2022-09-06T09:11:21.185Z,101539.53
2022-09-06T09:13:47.604Z,101536.09
2022-09-06T09:16:19.067Z,101534.22
2022-09-06T09:18:55.347Z,101534.63
2022-09-06T09:21:30.200Z,101525.53
2022-09-06T09:24:15.811Z,101539.78
2022-09-06T09:27:17.568Z,101534.84
2022-09-06T09:30:53.825Z,101541.34
2022-09-06T09:33:41.212Z,101535.13
2022-09-06T09:39:40.145Z,101520.56
2022-09-06T09:42:09.933Z,101527.97
2022-09-06T09:44:53.477Z,101525.69
2022-09-06T09:48:12.172Z,101533.78
2022-09-06T09:50:43.552Z,101518.13
2022-09-06T09:53:17.880Z,101513.53
2022-09-06T09:55:45.773Z,101515.31
2022-09-06T09:58:37.386Z,101522.56
2022-09-06T10:01:26.970Z,101529.19
2022-09-06T10:07:24.255Z,101518.63
2022-09-06T10:10:07.353Z,101520.41
2022-09-06T10:13:08.825Z,101519.81
2022-09-06T10:15:42.451Z,101524.81
2022-09-06T10:18:43.772Z,101524.25
2022-09-06T10:21:22.390Z,101517.91
2022-09-06T10:24:36.901Z,101520.47
2022-09-06T10:27:16.668Z,101523.69
2022-09-06T10:30:06.407Z,101517.47
2022-09-06T10:32:36.338Z,101521.66
2022-09-06T10:35:37.895Z,101529.84
2022-09-06T10:38:24.006Z,101519.56
2022-09-06T10:41:38.884Z,101521.88
2022-09-06T10:44:39.533Z,101524.88
2022-09-06T10:47:38.658Z,101532.16
2022-09-06T10:50:22.071Z,101529.38
2022-09-06T10:52:51.905Z,101534.94
2022-09-06T10:55:30.442Z,101534.09
2022-09-06T10:58:20.649Z,101535.19
2022-09-06T11:00:51.390Z,101528.38
2022-09-06T11:06:31.719Z,101538.78
2022-09-06T11:09:25.119Z,101535.53
2022-09-06T11:12:08.150Z,101542.09
2022-09-06T11:14:36.581Z,101543.38
2022-09-06T11:17:12.927Z,101548.69
2022-09-06T11:20:27.395Z,101537.47
2022-09-06T11:23:44.912Z,101533.06
2022-09-06T11:26:48.536Z,101556.66
2022-09-06T11:29:26.017Z,101552.16
2022-09-06T11:34:58.219Z,101559.31
2022-09-06T11:37:44.917Z,101549.38
2022-09-06T11:40:28.588Z,101551.69
2022-09-06T11:42:58.756Z,101541.75
2022-09-06T11:45:53.227Z,101547.97
2022-09-06T11:48:26.599Z,101548.19
2022-09-06T11:51:10.998Z,101546.31
2022-09-06T11:54:23.372Z,101553.94
2022-09-06T11:56:56.053Z,101552.97
2022-09-06T11:59:49.250Z,101545.81
2022-09-06T12:02:36.382Z,101557.06
2022-09-06T12:05:07.263Z,101555.53
2022-09-06T12:07:37.849Z,101550.56
2022-09-06T12:10:44.899Z,101550.91
2022-09-06T12:13:47.615Z,101545.56
2022-09-06T12:16:45.314Z,101545.78
2022-09-06T12:19:51.959Z,101546.69
2022-09-06T12:22:35.985Z,101555.59
2022-09-06T12:25:34.472Z,101546.38
2022-09-06T12:28:22.576Z,101545.66
2022-09-06T12:31:24.283Z,101535.00
2022-09-06T12:33:56.936Z,101534.78
2022-09-06T12:36:58.438Z,101530.03
2022-09-06T12:39:27.775Z,101534.53
2022-09-06T12:42:15.215Z,101523.88
2022-09-06T12:44:52.958Z,101541.44
2022-09-06T12:47:45.472Z,101528.97
2022-09-06T12:50:25.801Z,101528.06
2022-09-06T12:53:27.864Z,101522.97
2022-09-06T12:56:08.873Z,101510.25
2022-09-06T12:58:43.654Z,101505.84
2022-09-06T13:01:32.910Z,101502.97
2022-09-06T13:04:19.165Z,101504.13
2022-09-06T13:07:04.594Z,101511.03
2022-09-06T13:09:33.606Z,101508.69
2022-09-06T13:12:21.465Z,101508.69
2022-09-06T13:15:11.806Z,101511.63
2022-09-06T13:17:49.524Z,101507.25
2022-09-06T13:21:14.764Z,101507.47
2022-09-06T13:23:51.072Z,101497.69
2022-09-06T13:26:37.731Z,101483.56
2022-09-06T13:29:16.828Z,101483.19
2022-09-06T13:31:54.667Z,101471.72
2022-09-06T13:34:32.757Z,101467.78
2022-09-06T13:37:09.315Z,101465.00
2022-09-06T13:39:46.418Z,101461.41
2022-09-06T13:42:33.166Z,101456.56
2022-09-06T13:45:36.886Z,101453.44
2022-09-06T13:48:31.562Z,101453.97
2022-09-06T13:50:59.607Z,101455.22
2022-09-06T13:54:09.205Z,101449.69
2022-09-06T13:56:37.254Z,101444.47
2022-09-06T13:59:05.427Z,101436.94
2022-09-06T14:01:38.298Z,101436.56
2022-09-06T14:04:07.511Z,101426.56
2022-09-06T14:06:48.531Z,101432.84
2022-09-06T14:09:38.121Z,101434.72
2022-09-06T14:12:10.230Z,101428.00
2022-09-06T14:14:47.917Z,101428.00
2022-09-06T14:17:15.701Z,101435.88
2022-09-06T14:19:46.287Z,101444.56
2022-09-06T14:22:34.662Z,101445.38
2022-09-06T14:25:09.395Z,101444.56
2022-09-06T14:27:50.249Z,101445.38
2022-09-06T14:30:19.345Z,101446.16
2022-09-06T14:32:50.919Z,101451.72
2022-09-06T14:35:21.552Z,101447.78
2022-09-06T14:37:59.287Z,101452.09
2022-09-06T14:40:26.235Z,101454.31
2022-09-06T14:42:52.726Z,101459.53
2022-09-06T14:45:20.235Z,101461.31
2022-09-06T14:47:48.343Z,101463.91
2022-09-06T14:50:14.857Z,101452.44
2022-09-06T14:52:55.729Z,101458.00
2022-09-06T14:55:22.161Z,101448.50
2022-09-06T14:57:49.060Z,101447.41
2022-09-06T15:00:28.961Z,101449.03
2022-09-06T15:03:15.797Z,101448.25
2022-09-06T15:05:49.488Z,101443.41
2022-09-06T15:08:26.192Z,101436.22
2022-09-06T15:11:13.091Z,101438.56
2022-09-06T15:13:41.896Z,101429.34
2022-09-06T15:16:11.006Z,101424.94
2022-09-06T15:18:48.876Z,101418.50
2022-09-06T15:21:18.492Z,101414.38
2022-09-06T15:23:56.982Z,101411.41
2022-09-06T15:26:25.237Z,101413.97
2022-09-06T15:28:57.398Z,101414.69
2022-09-06T15:31:23.930Z,101410.69
2022-09-06T15:33:52.879Z,101411.41
2022-09-06T15:36:57.233Z,101410.13
2022-09-06T15:39:36.311Z,101408.06
2022-09-06T15:42:07.276Z,101405.56
2022-09-06T15:44:58.733Z,101411.09
2022-09-06T15:47:25.286Z,101413.09
2022-09-06T15:50:02.142Z,101414.59
2022-09-06T15:52:47.120Z,101413.34
2022-09-06T15:55:45.453Z,101425.50
2022-09-06T15:58:15.098Z,101422.66
2022-09-06T16:01:10.140Z,101420.94
2022-09-06T16:03:39.101Z,101412.16
2022-09-06T16:06:28.224Z,101408.91
2022-09-06T16:09:26.502Z,101416.78
2022-09-06T16:11:56.049Z,101422.72
2022-09-06T16:14:53.699Z,101421.00
2022-09-06T16:17:31.299Z,101407.28
2022-09-06T16:20:00.586Z,101404.75
2022-09-06T16:22:31.328Z,101398.19
2022-09-06T16:25:06.240Z,101400.84
2022-09-06T16:27:33.937Z,101396.72
2022-09-06T16:30:14.513Z,101389.91
2022-09-06T16:32:42.084Z,101392.25
2022-09-06T16:35:30.653Z,101396.19
2022-09-06T16:37:57.388Z,101388.56
2022-09-06T16:40:24.880Z,101403.59
2022-09-06T16:42:54.501Z,101398.28
2022-09-06T16:45:32.020Z,101401.75
2022-09-06T16:48:23.552Z,101395.31
2022-09-06T16:50:58.476Z,101390.56
2022-09-06T16:53:27.058Z,101388.59
2022-09-06T16:55:54.006Z,101398.06
2022-09-06T16:58:29.998Z,101400.84
2022-09-06T17:01:01.987Z,101402.38
2022-09-06T17:03:45.131Z,101402.25
2022-09-06T17:06:15.889Z,101406.88
2022-09-06T17:08:44.011Z,101404.81
2022-09-06T17:11:21.119Z,101409.88
2022-09-06T17:13:53.701Z,101405.03
2022-09-06T17:16:47.221Z,101407.34
2022-09-06T17:19:19.970Z,101396.19
2022-09-06T17:21:47.858Z,101400.81
2022-09-06T17:24:23.766Z,101393.06
2022-09-06T17:27:16.278Z,101397.19
2022-09-06T17:29:49.810Z,101404.50
2022-09-06T17:32:16.367Z,101412.69
2022-09-06T17:34:44.189Z,101418.47
2022-09-06T17:37:15.272Z,101411.66
2022-09-06T17:40:21.859Z,101416.25
2022-09-06T17:42:57.876Z,101412.25
2022-09-06T17:45:26.726Z,101412.78
2022-09-06T17:48:08.965Z,101413.16
2022-09-06T17:51:19.255Z,101419.25
2022-09-06T17:53:52.548Z,101416.59
2022-09-06T17:56:39.725Z,101417.63
2022-09-06T17:59:13.530Z,101410.47
2022-09-06T18:01:45.830Z,101417.97
2022-09-06T18:04:18.124Z,101413.13
2022-09-06T18:06:49.552Z,101416.59
2022-09-06T18:09:29.362Z,101412.41
2022-09-06T18:11:59.197Z,101408.72
2022-09-06T18:14:28.707Z,101421.59
2022-09-06T18:17:04.628Z,101417.44
2022-09-06T18:19:53.196Z,101418.78
2022-09-06T18:22:22.819Z,101409.09
2022-09-06T18:24:55.025Z,101398.72
2022-09-06T18:27:26.100Z,101403.44
2022-09-06T18:30:01.669Z,101401.69
2022-09-06T18:32:30.268Z,101391.31
2022-09-06T18:34:57.776Z,101385.97
2022-09-06T18:37:28.300Z,101378.38
2022-09-06T18:40:00.060Z,101372.84
2022-09-06T18:42:29.053Z,101376.31
2022-09-06T18:44:57.665Z,101372.47
2022-09-06T18:47:24.268Z,101370.59
2022-09-06T18:50:41.410Z,101376.00
2022-09-06T18:53:12.768Z,101381.28
2022-09-06T18:56:00.165Z,101387.31
2022-09-06T18:58:27.916Z,101380.34
2022-09-06T19:01:03.225Z,101385.75
2022-09-06T19:03:34.323Z,101383.19
2022-09-06T19:06:21.355Z,101380.91
2022-09-06T19:09:15.125Z,101368.03
2022-09-06T19:11:58.052Z,101361.47
2022-09-06T19:14:25.859Z,101357.25
2022-09-06T19:16:54.257Z,101358.72
2022-09-06T19:19:25.628Z,101351.56
2022-09-06T19:21:54.564Z,101345.09
2022-09-06T19:24:27.621Z,101352.13
2022-09-06T19:26:55.870Z,101349.78
2022-09-06T19:29:23.880Z,101357.78
2022-09-06T19:31:55.403Z,101351.50
2022-09-06T19:34:25.175Z,101344.56
2022-09-06T19:36:55.803Z,101339.88
2022-09-06T19:39:44.475Z,101329.63
2022-09-06T19:42:14.166Z,101318.44
2022-09-06T19:45:00.864Z,101318.75
2022-09-06T19:47:28.443Z,101315.88
2022-09-06T19:50:02.377Z,101300.78
2022-09-06T19:52:33.179Z,101300.78
2022-09-06T19:55:18.134Z,101303.06
2022-09-06T19:57:46.156Z,101300.31
2022-09-06T20:01:18.079Z,101295.13
2022-09-06T20:03:51.406Z,101293.38
2022-09-06T20:07:01.570Z,101288.50
2022-09-06T20:09:39.267Z,101275.72
2022-09-06T20:12:06.706Z,101280.47
2022-09-06T20:14:45.433Z,101277.69
2022-09-06T20:17:32.979Z,101276.28
2022-09-06T20:20:00.723Z,101269.78
2022-09-06T20:22:54.525Z,101271.44
2022-09-06T20:25:41.255Z,101264.25
2022-09-06T20:28:20.240Z,101260.19
2022-09-06T20:30:52.416Z,101264.28
2022-09-06T20:33:21.058Z,101259.13
2022-09-06T20:35:58.021Z,101253.78
2022-09-06T20:38:26.028Z,101246.19
2022-09-06T20:41:12.560Z,101243.28
2022-09-06T20:43:50.221Z,101241.34
2022-09-06T20:46:27.792Z,101240.50
2022-09-06T20:49:00.001Z,101239.06
2022-09-06T20:51:36.122Z,101232.72
2022-09-06T20:54:07.842Z,101231.91
2022-09-06T20:56:49.077Z,101231.25
2022-09-06T20:59:40.517Z,101222.63
2022-09-06T21:02:17.168Z,101229.28
2022-09-06T21:04:55.934Z,101227.34
2022-09-06T21:07:29.342Z,101219.38
2022-09-06T21:09:57.914Z,101210.78
2022-09-06T21:12:35.163Z,101206.72
2022-09-06T21:15:14.076Z,101207.09
2022-09-06T21:17:50.145Z,101194.75
2022-09-06T21:20:16.781Z,101182.75
2022-09-06T21:23:03.070Z,101191.88
2022-09-06T21:25:31.298Z,101203.22
2022-09-06T21:27:58.690Z,101202.44
2022-09-06T21:30:45.970Z,101198.53
2022-09-06T21:33:15.104Z,101197.69
2022-09-06T21:35:52.145Z,101189.91
2022-09-06T21:38:27.913Z,101186.00
2022-09-06T21:40:57.825Z,101186.00
2022-09-06T21:43:33.282Z,101192.00
2022-09-06T21:46:33.995Z,101202.22
2022-09-06T21:53:02.509Z,101192.81
2022-09-06T21:55:51.108Z,101186.16
2022-09-06T21:58:18.621Z,101175.44
2022-09-06T22:00:55.620Z,101181.78
2022-09-06T22:03:48.977Z,101188.44
2022-09-06T22:06:22.336Z,101201.09
2022-09-06T22:08:58.402Z,101196.25
2022-09-06T22:11:36.141Z,101200.16
2022-09-06T22:14:06.875Z,101192.19
2022-09-06T22:16:47.419Z,101190.56
2022-09-06T22:19:16.271Z,101196.09
2022-09-06T22:21:51.798Z,101187.69
2022-09-06T22:24:23.018Z,101200.53
2022-09-06T22:27:05.565Z,101219.56
2022-09-06T22:29:33.533Z,101269.25
2022-09-06T22:32:05.157Z,101328.16
2022-09-06T22:34:32.650Z,101367.28
2022-09-06T22:37:10.553Z,101373.94
2022-09-06T22:39:40.199Z,101419.47
2022-09-06T22:42:11.781Z,101452.56
2022-09-06T22:44:45.358Z,101473.47
2022-09-06T22:47:11.803Z,101469.19
2022-09-06T22:49:41.566Z,101459.00
2022-09-06T22:52:27.661Z,101474.28
2022-09-06T22:54:57.226Z,101464.66
2022-09-06T22:57:42.142Z,101455.53
2022-09-06T23:00:51.481Z,101446.84
2022-09-06T23:03:35.592Z,101450.78
2022-09-06T23:06:12.039Z,101432.25
2022-09-06T23:08:43.019Z,101428.50
2022-09-06T23:11:16.525Z,101414.72
2022-09-06T23:13:44.722Z,101414.63
2022-09-06T23:16:28.702Z,101410.50
2022-09-06T23:18:56.532Z,101410.88
2022-09-06T23:21:42.478Z,101419.97
2022-09-06T23:24:18.133Z,101410.31
2022-09-06T23:27:04.912Z,101399.97
2022-09-06T23:29:46.548Z,101400.13
2022-09-06T23:32:25.187Z,101397.09
2022-09-06T23:34:58.909Z,101400.97
2022-09-06T23:37:36.774Z,101404.50
2022-09-06T23:40:09.272Z,101393.41
2022-09-06T23:42:39.155Z,101393.84
2022-09-06T23:45:33.080Z,101382.25
2022-09-06T23:48:04.071Z,101367.50
2022-09-06T23:50:43.522Z,101355.53
2022-09-06T23:53:24.197Z,101357.88
2022-09-06T23:56:05.260Z,101347.41
2022-09-06T23:58:41.212Z,101353.00
